Time;durP1;ratioP1;P1;durP2;ratioP2;P2;SDS_P1;SDS_P2;PMS_P1;PMS_P2;Temp;Humidity;BMP_temperature;BMP_pressure;BME280_temperature;BME280_humidity;BME280_pressure;Samples;Min_cycle;Max_cycle;Signal;HPM_P1;HPM_P2
2022/07/22 11:02:25;;;;;;;;;32.00;27.00;;;;;24.60;56.92;101026.94;5374089;23;45341;31
2022/07/22 11:07:53;;;;;;;;;24.20;23.80;;;;;24.25;57.14;100978.59;4854970;29;45744;-62
2022/07/22 11:10:19;;;;;;;;;25.25;24.25;;;;;24.33;57.38;100969.50;4876940;29;45658;-62
2022/07/22 11:12:49;;;;;;;;;25.80;22.40;;;;;24.76;57.47;100995.88;4846536;29;45472;-60
2022/07/22 11:15:16;;;;;;;;;30.20;27.60;;;;;24.75;56.19;100981.00;4846752;29;45485;-63
2022/07/22 11:17:41;;;;;;;;;26.40;24.20;;;;;24.75;56.61;100968.94;4878965;29;45801;-62
2022/07/22 11:20:11;;;;;;;;;28.50;26.25;;;;;24.86;56.17;100964.06;4862604;29;45434;-63
2022/07/22 11:22:36;;;;;;;;;28.40;25.60;;;;;24.86;56.54;100967.69;4863115;29;45425;-64
2022/07/22 11:25:12;;;;;;;;;28.00;28.00;;;;;24.76;56.67;100943.38;4858679;29;45352;-60
2022/07/22 11:27:37;;;;;;;;;30.00;27.80;;;;;24.91;56.59;100975.19;4864174;29;46720;-61
2022/07/22 11:30:06;;;;;;;;;29.75;29.75;;;;;24.89;57.23;100960.63;4862078;29;45405;-60
2022/07/22 11:32:32;;;;;;;;;28.40;25.60;;;;;24.77;56.67;100930.19;4848248;29;45452;-63
2022/07/22 11:34:58;;;;;;;;;27.60;25.60;;;;;24.97;56.54;100956.31;4879729;29;45386;-61
2022/07/22 11:37:24;;;;;;;;;28.00;25.80;;;;;24.83;56.67;100942.19;4862678;29;46245;-62
2022/07/22 11:39:50;;;;;;;;;25.40;24.60;;;;;24.83;56.41;100945.00;4862950;29;45367;-62
2022/07/22 11:42:16;;;;;;;;;27.80;25.40;;;;;25.10;56.88;100999.59;4863284;29;45414;-62
2022/07/22 11:44:42;;;;;;;;;30.50;28.50;;;;;25.14;55.91;100997.88;4841151;29;45724;-61
2022/07/22 11:47:08;;;;;;;;;22.75;22.50;;;;;25.17;55.59;100991.63;4859984;29;46313;-61
2022/07/22 11:49:35;;;;;;;;;33.60;25.20;;;;;25.24;55.41;101002.47;4839127;29;45607;-60
2022/07/22 11:52:04;;;;;;;;;25.20;23.00;;;;;25.19;55.28;100992.16;4871776;29;45717;-60
2022/07/22 11:54:29;;;;;;;;;26.00;22.80;;;;;25.31;55.30;101000.94;4858921;29;45821;-60
2022/07/22 11:56:56;;;;;;;;;24.50;21.75;;;;;25.34;54.89;101001.47;4857528;29;46788;-60
2022/07/22 11:59:21;;;;;;;;;25.00;23.60;;;;;25.37;55.24;101017.72;4874986;29;45475;-61
2022/07/22 12:01:49;;;;;;;;;21.00;20.25;;;;;25.34;54.56;101038.00;4857299;29;45560;-59
2022/07/22 12:04:17;;;;;;;;;21.20;20.00;;;;;25.38;54.87;101044.66;4858976;29;45601;-62
2022/07/22 12:06:43;;;;;;;;;26.40;23.80;;;;;25.45;54.75;101053.53;4842470;29;47496;-62
2022/07/22 12:09:10;;;;;;;;;23.60;22.00;;;;;25.38;54.51;101059.53;4857149;29;45856;-60
2022/07/22 12:11:37;;;;;;;;;22.20;22.20;;;;;25.50;54.66;101092.78;4875437;29;45739;-61
2022/07/22 12:14:17;;;;;;;;;19.60;17.80;;;;;25.43;54.63;101053.00;4878436;29;45410;-63
2022/07/22 12:16:44;;;;;;;;;24.20;24.20;;;;;25.70;54.37;101076.75;4846510;29;45663;-63
2022/07/22 12:19:10;;;;;;;;;22.00;20.80;;;;;25.77;53.94;101065.94;4830844;29;45874;-62
2022/07/22 12:21:57;;;;;;;;;23.00;23.00;;;;;25.87;54.26;101056.50;4844811;29;45918;-64
2022/07/22 12:24:33;;;;;;;;;25.40;22.60;;;;;25.68;53.80;101005.97;4878351;29;45474;-60
2022/07/22 12:27:07;;;;;;;;;20.60;20.60;;;;;25.75;53.47;100997.97;4837185;29;46480;-61
2022/07/22 12:29:35;;;;;;;;;23.00;21.00;;;;;25.99;53.88;101022.28;4846538;29;45381;-60
2022/07/22 12:32:05;;;;;;;;;24.40;22.60;;;;;25.84;53.53;100984.88;4859869;29;45498;-61
2022/07/22 12:34:39;;;;;;;;;20.40;19.00;;;;;26.03;53.55;101028.13;4846285;29;45396;-61
2022/07/22 12:37:23;;;;;;;;;20.40;20.40;;;;;26.08;53.33;101042.06;4876780;29;45708;-63
2022/07/22 12:39:57;;;;;;;;;21.00;21.00;;;;;26.05;53.71;101037.06;4860883;29;46027;-61
2022/07/22 12:42:23;;;;;;;;;22.00;20.40;;;;;26.09;53.08;101049.38;4845483;29;45517;-63
2022/07/22 12:45:08;;;;;;;;;23.60;23.60;;;;;26.09;52.96;101038.13;4851338;29;45455;-61
2022/07/22 12:48:13;;;;;;;;;22.20;21.80;;;;;26.14;53.10;101048.44;4877379;29;45768;-62
2022/07/22 12:50:53;;;;;;;;;22.80;21.00;;;;;26.01;52.45;101014.38;4875612;29;45515;-62
2022/07/22 12:53:18;;;;;;;;;21.40;19.20;;;;;26.05;52.54;101032.28;4880323;29;46469;-63
2022/07/22 12:55:52;;;;;;;;;25.25;21.50;;;;;26.05;52.53;101012.59;4881797;29;45313;-64
2022/07/22 12:58:18;;;;;;;;;20.20;20.20;;;;;26.17;52.74;101025.31;4880290;29;46084;-65
2022/07/22 13:00:52;;;;;;;;;22.80;21.20;;;;;26.20;52.09;101022.69;4864741;29;45465;-60
2022/07/22 13:03:21;;;;;;;;;21.60;20.60;;;;;26.34;52.30;101013.47;4881813;29;45398;-62
2022/07/22 13:05:48;;;;;;;;;20.40;20.40;;;;;26.37;52.05;100987.53;4881880;29;45419;-61
2022/07/22 13:08:13;;;;;;;;;21.20;18.60;;;;;26.66;51.93;100998.44;4865786;29;46301;-61
2022/07/22 13:10:39;;;;;;;;;26.25;24.75;;;;;26.49;51.50;100967.28;4881985;29;45346;-61
2022/07/22 13:13:05;;;;;;;;;26.75;20.50;;;;;26.71;51.61;100979.75;4849560;29;45477;-61
2022/07/22 13:15:30;;;;;;;;;24.50;22.00;;;;;26.74;50.72;101007.28;4865398;29;45616;-61
2022/07/22 13:17:56;;;;;;;;;27.75;23.75;;;;;26.75;50.81;101009.78;4855771;29;45400;-64
2022/07/22 13:20:21;;;;;;;;;26.00;23.00;;;;;26.77;50.92;101001.84;4872522;29;45405;-67
2022/07/22 13:22:47;;;;;;;;;24.25;24.25;;;;;26.82;51.10;101003.69;4875177;29;46079;-65
2022/07/22 13:25:12;;;;;;;;;25.50;24.50;;;;;26.84;51.86;101015.47;4876537;29;45764;-65
2022/07/22 13:27:38;;;;;;;;;23.00;19.25;;;;;26.85;51.81;101017.16;4844706;29;45696;-64
2022/07/22 13:30:04;;;;;;;;;28.00;24.50;;;;;26.61;51.91;100969.53;4831661;29;46080;-60
2022/07/22 13:32:29;;;;;;;;;25.60;23.40;;;;;26.77;52.25;100979.31;4864464;29;45484;-62
2022/07/22 13:34:55;;;;;;;;;25.25;24.50;;;;;26.79;51.96;100984.63;4881795;29;45643;-61
2022/07/22 13:37:21;;;;;;;;;28.50;25.25;;;;;26.84;51.80;100972.41;4847439;29;47164;-62
2022/07/22 13:39:48;;;;;;;;;20.20;20.20;;;;;26.95;50.78;100978.66;4881219;29;45400;-59
2022/07/22 13:42:17;;;;;;;;;29.60;28.00;;;;;27.22;51.11;100999.44;4881242;29;45422;-61
2022/07/22 13:44:44;;;;;;;;;29.40;26.20;;;;;27.16;50.58;100957.28;4864791;29;45589;-61
2022/07/22 13:47:09;;;;;;;;;28.80;27.00;;;;;27.19;50.65;100976.38;4880371;29;45503;-61
2022/07/22 13:49:34;;;;;;;;;31.50;26.75;;;;;27.20;51.14;100977.19;4881183;29;45326;-64
2022/07/22 13:52:01;;;;;;;;;29.75;25.75;;;;;27.17;50.55;100983.50;4864517;29;45511;-61
2022/07/22 13:54:27;;;;;;;;;26.60;26.20;;;;;27.17;50.52;100992.75;4873044;29;45446;-60
2022/07/22 13:56:52;;;;;;;;;25.75;25.75;;;;;26.99;51.31;100969.25;4862657;29;46938;-60
2022/07/22 13:59:18;;;;;;;;;28.75;27.75;;;;;27.14;50.99;100976.50;4862916;29;45369;-61
2022/07/22 14:01:43;;;;;;;;;29.50;27.75;;;;;27.09;51.01;100959.72;4846037;29;45535;-62
2022/07/22 14:04:09;;;;;;;;;24.50;23.25;;;;;27.12;49.89;100961.06;4862973;29;45407;-60
2022/07/22 14:06:34;;;;;;;;;29.00;22.00;;;;;27.26;50.84;100995.66;4845740;29;45738;-61
2022/07/22 14:09:00;;;;;;;;;28.75;26.75;;;;;27.04;50.12;100966.31;4845544;29;45248;-62
2022/07/22 14:11:25;;;;;;;;;26.50;23.50;;;;;26.90;50.68;100954.25;4845952;29;45414;-61
2022/07/22 14:13:51;;;;;;;;;28.75;28.25;;;;;27.00;50.81;100975.75;4862709;29;45440;-61
2022/07/22 14:16:34;;;;;;;;;25.75;24.25;;;;;26.91;51.14;100970.03;4862413;29;45905;-62
2022/07/22 14:19:11;;;;;;;;;26.40;24.20;;;;;27.00;50.97;101003.91;4848006;29;45732;-62
2022/07/22 14:21:37;;;;;;;;;24.60;24.20;;;;;27.01;50.21;101012.00;4862625;29;45299;-60
2022/07/22 14:24:03;;;;;;;;;23.00;22.20;;;;;27.04;50.75;101024.63;4845863;29;45402;-61
2022/07/22 14:26:29;;;;;;;;;32.60;30.80;;;;;27.01;50.31;101028.91;4845374;29;45399;-61
2022/07/22 14:28:55;;;;;;;;;30.40;29.20;;;;;26.75;50.98;101000.47;4845235;29;45453;-63
2022/07/22 14:31:21;;;;;;;;;40.75;35.00;;;;;26.83;51.21;101016.63;4861756;29;45462;-62
2022/07/22 14:33:47;;;;;;;;;28.50;26.25;;;;;26.86;51.03;101026.41;4845924;29;45588;-60
2022/07/22 14:36:13;;;;;;;;;27.80;26.80;;;;;26.88;50.93;101005.25;4861267;29;45667;-63
2022/07/22 14:38:39;;;;;;;;;25.25;24.25;;;;;26.90;51.54;100988.03;4861672;29;45347;-61
2022/07/22 14:41:04;;;;;;;;;25.50;22.50;;;;;27.00;51.07;101010.34;4861891;29;45295;-62
2022/07/22 14:43:29;;;;;;;;;30.00;25.25;;;;;26.97;50.59;100998.88;4845389;29;45564;-63
2022/07/22 14:45:55;;;;;;;;;23.25;22.00;;;;;27.12;51.03;101015.44;4861911;29;46587;-62
2022/07/22 14:48:20;;;;;;;;;27.50;26.25;;;;;26.98;50.61;100995.75;4844877;29;45373;-62
2022/07/22 14:50:46;;;;;;;;;26.50;25.50;;;;;26.95;50.96;100989.94;4845085;29;45234;-62
2022/07/22 14:53:12;;;;;;;;;25.75;23.50;;;;;26.85;50.89;100977.75;4862149;29;45222;-62
2022/07/22 14:55:38;;;;;;;;;23.40;23.40;;;;;26.93;50.93;101007.97;4877789;29;45809;-63
2022/07/22 14:58:03;;;;;;;;;30.25;27.75;;;;;26.90;50.79;101005.78;4879968;29;45347;-61
2022/07/22 15:00:29;;;;;;;;;24.25;22.75;;;;;26.85;50.45;101013.50;4854986;29;45511;-60
2022/07/22 15:02:54;;;;;;;;;26.75;25.75;;;;;26.83;50.84;101013.81;4861159;29;45548;-62
2022/07/22 15:05:20;;;;;;;;;23.25;22.75;;;;;26.87;51.50;101009.22;4856844;29;47089;-64
2022/07/22 15:07:45;;;;;;;;;24.00;21.75;;;;;26.84;51.33;100989.31;4875003;29;45433;-61
2022/07/22 15:10:11;;;;;;;;;26.50;25.00;;;;;26.90;51.38;101011.41;4876340;29;45538;-60
2022/07/22 15:12:36;;;;;;;;;26.25;25.00;;;;;26.99;51.45;101013.50;4876721;29;45840;-61
2022/07/22 15:15:03;;;;;;;;;25.25;24.25;;;;;26.87;51.35;100983.88;4876330;29;46670;-60
2022/07/22 15:17:28;;;;;;;;;25.20;24.20;;;;;27.02;51.07;100993.13;4844057;29;45486;-62
2022/07/22 15:19:54;;;;;;;;;27.00;24.00;;;;;27.05;50.90;100992.50;4875523;29;46025;-61
2022/07/22 15:22:19;;;;;;;;;18.00;17.25;;;;;27.05;50.95;100984.06;4859415;29;45726;-60
2022/07/22 15:24:45;;;;;;;;;23.50;23.50;;;;;27.18;51.26;100986.00;4876192;29;46072;-61
2022/07/22 15:27:10;;;;;;;;;27.00;22.00;;;;;27.26;50.67;100961.03;4876362;29;45689;-61
2022/07/22 15:29:36;;;;;;;;;24.25;22.25;;;;;27.19;50.82;100959.47;4876438;29;45693;-60
2022/07/22 15:32:01;;;;;;;;;25.75;22.00;;;;;27.26;50.72;100989.19;4858375;29;45619;-60
2022/07/22 15:34:31;;;;;;;;;28.00;23.50;;;;;27.24;50.95;100977.41;4876286;29;46546;-61
2022/07/22 15:36:56;;;;;;;;;23.40;21.20;;;;;27.48;50.39;100999.63;4828596;29;45428;-57
2022/07/22 15:39:22;;;;;;;;;25.50;25.50;;;;;27.58;50.19;101012.66;4875937;29;45829;-57
2022/07/22 15:41:47;;;;;;;;;23.50;23.50;;;;;27.59;50.02;101020.75;4859351;29;45874;-59
2022/07/22 15:44:13;;;;;;;;;24.25;23.75;;;;;27.54;50.25;101015.22;4874816;29;45733;-59
2022/07/22 15:46:38;;;;;;;;;22.50;22.50;;;;;27.46;50.11;101022.47;4876084;29;45783;-63
2022/07/22 15:49:04;;;;;;;;;20.25;20.00;;;;;27.32;50.12;101000.00;4879495;29;45849;-60
2022/07/22 15:51:29;;;;;;;;;20.00;18.75;;;;;27.74;49.68;101011.06;4879621;29;45625;-57
2022/07/22 15:53:55;;;;;;;;;20.25;20.25;;;;;28.60;48.32;101017.75;4862170;29;45841;-58
2022/07/22 15:56:20;;;;;;;;;24.75;22.25;;;;;29.29;46.43;101004.84;4877916;29;45397;-58
2022/07/22 16:01:30;;;;;;;;;25.60;24.80;;;;;29.83;45.32;100999.94;4870443;29;45394;-57
2022/07/22 16:03:55;;;;;;;;;20.25;19.50;;;;;29.67;45.06;100994.81;4861967;29;45906;-55
2022/07/22 16:06:21;;;;;;;;;25.00;25.00;;;;;29.57;45.01;100975.41;4861753;29;45762;-60
2022/07/22 16:08:46;;;;;;;;;24.00;23.75;;;;;30.03;44.43;101006.84;4877959;29;45609;-60
2022/07/22 16:11:13;;;;;;;;;25.25;24.00;;;;;29.98;44.44;101007.03;4846317;29;46007;-58
2022/07/22 16:13:39;;;;;;;;;30.20;26.40;;;;;29.66;44.39;101009.31;4878321;29;45794;-57
2022/07/22 16:16:05;;;;;;;;;22.80;22.80;;;;;29.32;45.51;100998.53;4878604;29;45463;-57
2022/07/22 16:18:30;;;;;;;;;23.60;21.60;;;;;29.24;45.96;100996.56;4877288;29;46079;-60
2022/07/22 16:20:56;;;;;;;;;25.00;24.00;;;;;29.17;45.57;100996.19;4877670;29;45433;-60
2022/07/22 16:23:21;;;;;;;;;22.00;21.75;;;;;28.89;45.90;100997.38;4849789;29;46369;-61
2022/07/22 16:25:47;;;;;;;;;24.75;24.75;;;;;28.67;46.64;100996.31;4878297;29;45478;-60
2022/07/22 16:28:12;;;;;;;;;24.50;24.50;;;;;28.43;46.96;100993.94;4874436;29;45462;-61
2022/07/22 16:30:38;;;;;;;;;19.00;19.00;;;;;28.20;46.82;100990.38;4876667;29;46002;-64
2022/07/22 16:33:03;;;;;;;;;28.50;27.75;;;;;27.97;47.53;100985.63;4876169;29;46279;-61
2022/07/22 16:35:29;;;;;;;;;24.25;24.25;;;;;27.83;48.41;100990.53;4877363;29;45434;-61
2022/07/22 16:37:54;;;;;;;;;27.50;23.50;;;;;27.65;48.46;100972.72;4845513;29;45515;-62
2022/07/22 16:40:20;;;;;;;;;21.00;21.00;;;;;27.47;49.05;100973.41;4877487;29;45358;-60
2022/07/22 16:42:45;;;;;;;;;20.75;18.75;;;;;27.37;48.19;100984.13;4849655;29;45492;-65
2022/07/22 16:45:11;;;;;;;;;25.00;24.00;;;;;27.24;49.50;100994.28;4875059;29;45462;-63
2022/07/22 16:47:37;;;;;;;;;29.50;29.50;;;;;27.03;50.82;100991.97;4877904;29;45404;-61
2022/07/22 16:50:03;;;;;;;;;25.00;23.25;;;;;27.09;51.23;101018.88;4844792;29;45524;-61
2022/07/22 16:52:29;;;;;;;;;26.80;24.80;;;;;26.98;51.61;101006.19;4876948;29;46692;-63
2022/07/22 16:54:55;;;;;;;;;18.75;18.25;;;;;26.71;51.60;100962.84;4877326;29;45783;-62
2022/07/22 16:57:21;;;;;;;;;22.60;21.80;;;;;26.79;52.71;100981.81;4858808;29;45622;-64
2022/07/22 16:59:46;;;;;;;;;28.40;24.80;;;;;26.59;52.49;100981.13;4876888;29;45941;-61
2022/07/22 17:02:12;;;;;;;;;23.75;23.75;;;;;26.58;54.53;100993.56;4858037;29;45617;-63
2022/07/22 17:04:38;;;;;;;;;25.25;24.25;;;;;26.42;54.93;100973.34;4858228;29;45461;-62
2022/07/22 17:07:03;;;;;;;;;24.00;23.25;;;;;26.48;55.71;100988.13;4841316;29;45782;-60
2022/07/22 17:09:29;;;;;;;;;27.75;25.25;;;;;26.23;55.45;100954.63;4865212;29;45825;-62
2022/07/22 17:11:54;;;;;;;;;23.75;23.75;;;;;26.31;55.87;100981.16;4877508;29;46754;-60
2022/07/22 17:14:20;;;;;;;;;19.75;19.25;;;;;26.24;55.67;100972.31;4876550;29;45447;-61
2022/07/22 17:16:45;;;;;;;;;26.25;23.50;;;;;26.18;57.14;100970.72;4844928;29;45459;-61
2022/07/22 17:19:11;;;;;;;;;28.50;27.50;;;;;26.14;56.53;100987.38;4877447;29;45758;-57
2022/07/22 17:21:36;;;;;;;;;26.75;25.00;;;;;25.90;55.74;100951.88;4875491;29;46512;-61
2022/07/22 17:24:02;;;;;;;;;18.00;18.00;;;;;25.89;56.85;100960.63;4838514;28;45595;-61
2022/07/22 17:26:28;;;;;;;;;26.00;25.75;;;;;25.91;56.79;100987.28;4869862;29;45769;-62
2022/07/22 17:28:54;;;;;;;;;29.00;28.00;;;;;25.87;58.08;100974.97;4860039;29;45967;-60
2022/07/22 17:31:19;;;;;;;;;27.00;24.50;;;;;25.91;57.63;100976.03;4876777;29;46615;-62
2022/07/22 17:33:45;;;;;;;;;27.25;26.75;;;;;25.78;58.31;100988.91;4858482;29;46201;-60
2022/07/22 17:36:10;;;;;;;;;26.00;23.75;;;;;25.79;58.51;100990.59;4877968;29;45509;-61
2022/07/22 17:38:36;;;;;;;;;30.00;28.75;;;;;25.77;58.18;100995.69;4877881;29;45878;-60
2022/07/22 17:41:01;;;;;;;;;35.25;32.25;;;;;25.75;58.45;101003.59;4876404;29;46083;-62
2022/07/22 17:43:27;;;;;;;;;28.75;27.25;;;;;25.56;58.82;100967.16;4845220;29;45515;-62
2022/07/22 17:45:52;;;;;;;;;30.50;27.50;;;;;25.63;58.52;100990.06;4876620;29;45434;-63
2022/07/22 17:48:18;;;;;;;;;30.50;28.75;;;;;25.55;59.04;100983.16;4845079;29;45554;-61
2022/07/22 17:50:43;;;;;;;;;28.75;27.75;;;;;25.50;59.37;100996.44;4877432;29;45536;-62
2022/07/22 17:53:09;;;;;;;;;31.50;29.25;;;;;25.47;59.55;101000.69;4845065;29;45427;-62
2022/07/22 17:55:35;;;;;;;;;26.75;26.00;;;;;25.42;59.85;101000.78;4877262;29;45479;-63
2022/07/22 17:58:01;;;;;;;;;37.25;30.25;;;;;25.28;59.73;100981.06;4859575;29;45465;-61
2022/07/22 18:00:26;;;;;;;;;35.25;30.25;;;;;25.44;59.44;101013.38;4860433;29;45634;-63
2022/07/22 18:02:52;;;;;;;;;34.50;29.50;;;;;25.27;59.85;100985.84;4851138;29;45553;-61
2022/07/22 18:05:17;;;;;;;;;35.25;30.50;;;;;25.45;59.95;101009.41;4844919;29;45515;-61
2022/07/22 18:07:43;;;;;;;;;35.75;33.00;;;;;25.41;59.75;101015.97;4877404;29;45717;-63
2022/07/22 18:10:08;;;;;;;;;32.25;30.50;;;;;25.44;59.29;101015.34;4858502;29;47123;-63
2022/07/22 18:12:34;;;;;;;;;34.50;27.75;;;;;25.40;59.70;101017.13;4877302;29;45500;-65
2022/07/22 18:15:02;;;;;;;;;27.75;26.25;;;;;25.39;59.20;101010.66;4877007;29;45541;-61
2022/07/22 18:17:27;;;;;;;;;32.20;27.80;;;;;25.37;58.84;101021.38;4877535;29;45474;-61
2022/07/22 18:19:53;;;;;;;;;27.25;26.25;;;;;25.35;58.69;101017.19;4877090;29;46676;-63
2022/07/22 18:22:18;;;;;;;;;35.75;27.00;;;;;25.24;58.74;101008.91;4875664;29;46406;-62
2022/07/22 18:24:44;;;;;;;;;29.75;28.75;;;;;24.97;59.22;100984.38;4829499;29;48213;-61
2022/07/22 18:27:09;;;;;;;;;23.00;19.50;;;;;25.26;59.04;101029.13;4855736;29;45420;-62
2022/07/22 18:29:35;;;;;;;;;33.75;31.75;;;;;25.17;59.02;101016.91;4857911;29;45714;-63
2022/07/22 18:32:01;;;;;;;;;29.00;27.00;;;;;25.22;59.48;101036.47;4841130;29;45382;-63
2022/07/22 18:34:27;;;;;;;;;24.80;24.40;;;;;25.15;58.89;101033.22;4846935;29;45842;-60
2022/07/22 18:36:53;;;;;;;;;35.40;30.20;;;;;25.16;58.79;101018.03;4845042;29;45793;-61
2022/07/22 18:39:18;;;;;;;;;29.75;28.00;;;;;25.09;58.88;101020.41;4859733;29;45879;-59
2022/07/22 18:41:44;;;;;;;;;26.25;24.25;;;;;25.25;58.79;101054.69;4876671;29;45883;-60
2022/07/22 18:44:09;;;;;;;;;28.00;26.50;;;;;25.22;58.95;101033.66;4876876;29;45891;-57
2022/07/22 18:46:35;;;;;;;;;28.50;27.50;;;;;25.04;59.46;101012.91;4876097;29;45668;-55
2022/07/22 18:49:00;;;;;;;;;26.50;26.25;;;;;24.84;59.01;101002.78;4876414;29;45508;-59
2022/07/22 18:51:25;;;;;;;;;25.75;25.75;;;;;25.11;58.98;101037.78;4878129;29;46031;-60
2022/07/22 18:53:51;;;;;;;;;25.00;25.00;;;;;25.09;59.31;101037.25;4879935;29;45895;-52
2022/07/22 18:56:16;;;;;;;;;27.00;23.75;;;;;25.10;59.07;101045.38;4880586;29;45802;-56
2022/07/22 18:58:42;;;;;;;;;25.50;24.00;;;;;25.08;59.44;101024.34;4863811;29;46543;-59
2022/07/22 19:01:07;;;;;;;;;35.25;29.00;;;;;25.03;59.87;101014.84;4863578;29;45400;-57
2022/07/22 19:03:33;;;;;;;;;27.00;25.50;;;;;25.07;58.77;101006.66;4880877;29;45481;-56
2022/07/22 19:05:59;;;;;;;;;24.50;24.50;;;;;25.09;58.78;101031.63;4862091;29;45549;-56
2022/07/22 19:08:24;;;;;;;;;31.40;27.20;;;;;24.96;59.58;101031.25;4864007;29;45441;-59
2022/07/22 19:10:50;;;;;;;;;26.25;24.75;;;;;24.87;60.44;101033.91;4880754;29;45343;-57
2022/07/22 19:13:15;;;;;;;;;25.00;25.00;;;;;24.71;60.99;101024.81;4863865;29;45404;-59
2022/07/22 19:15:41;;;;;;;;;23.50;22.75;;;;;24.61;61.24;101022.97;4880744;29;45289;-59
2022/07/22 19:18:07;;;;;;;;;31.50;28.50;;;;;24.70;61.23;101033.56;4863538;29;45859;-56
2022/07/22 19:20:32;;;;;;;;;31.75;29.25;;;;;24.67;61.67;101042.56;4880741;29;45163;-54
2022/07/22 19:22:58;;;;;;;;;29.00;27.25;;;;;24.69;61.76;101043.09;4886634;29;45260;-57
2022/07/22 19:25:23;;;;;;;;;24.00;22.75;;;;;24.45;62.23;101015.91;4863952;29;45568;-56
2022/07/22 19:27:49;;;;;;;;;26.25;24.50;;;;;24.60;62.30;101048.56;4886668;29;46361;-58
2022/07/22 19:30:15;;;;;;;;;30.00;27.20;;;;;24.50;62.58;101057.94;4878790;29;45510;-57
2022/07/22 19:32:40;;;;;;;;;33.00;30.25;;;;;24.44;61.84;101048.72;4865945;29;45543;-61
2022/07/22 19:35:06;;;;;;;;;25.25;24.25;;;;;24.31;61.98;101036.28;4866677;29;45544;-58
2022/07/22 19:37:32;;;;;;;;;26.25;23.50;;;;;24.41;62.09;101054.94;4862719;29;46402;-62
2022/07/22 19:39:57;;;;;;;;;25.25;23.25;;;;;24.39;62.38;101047.97;4867329;29;45495;-61
2022/07/22 19:42:23;;;;;;;;;26.00;23.00;;;;;24.36;62.35;101040.97;4868586;29;45493;-61
2022/07/22 19:44:49;;;;;;;;;26.75;25.25;;;;;24.36;62.37;101049.41;4885119;29;45375;-62
2022/07/22 19:47:14;;;;;;;;;28.75;25.00;;;;;24.32;62.25;101043.56;4852450;29;45404;-61
2022/07/22 19:49:40;;;;;;;;;28.50;27.25;;;;;24.26;61.82;101044.75;4868117;29;45446;-61
2022/07/22 19:52:05;;;;;;;;;32.75;27.75;;;;;24.28;61.60;101050.06;4867896;29;45262;-62
2022/07/22 19:54:31;;;;;;;;;27.00;27.00;;;;;24.28;61.69;101055.66;4885298;29;45208;-60
2022/07/22 19:56:56;;;;;;;;;26.50;23.50;;;;;24.20;62.00;101051.53;4884650;29;45842;-60
2022/07/22 19:59:22;;;;;;;;;31.25;27.75;;;;;24.13;61.97;101048.25;4885097;29;45168;-60
2022/07/22 20:01:47;;;;;;;;;32.50;31.00;;;;;23.92;61.93;101029.66;4867408;29;45192;-61
2022/07/22 20:04:13;;;;;;;;;22.50;21.50;;;;;24.01;62.50;101045.84;4885160;29;45393;-62
2022/07/22 20:06:38;;;;;;;;;38.50;32.25;;;;;23.69;61.93;101006.91;4884072;29;46483;-62
2022/07/22 20:09:03;;;;;;;;;34.50;29.50;;;;;23.96;62.07;101055.97;4868173;29;45912;-61
2022/07/22 20:11:29;;;;;;;;;26.25;25.75;;;;;23.75;62.70;101041.28;4884659;29;45710;-61
2022/07/22 20:13:54;;;;;;;;;30.75;29.00;;;;;23.89;62.36;101068.63;4884883;29;45439;-63
2022/07/22 20:16:20;;;;;;;;;25.50;23.75;;;;;23.86;62.69;101070.09;4867194;29;47251;-62
2022/07/22 20:18:45;;;;;;;;;32.00;28.00;;;;;23.79;62.35;101063.94;4884772;29;45482;-61
2022/07/22 20:21:11;;;;;;;;;22.50;19.50;;;;;23.91;62.72;101080.41;4884610;29;46058;-62
2022/07/22 20:23:36;;;;;;;;;23.00;23.00;;;;;23.91;62.96;101078.41;4884669;29;45545;-61
2022/07/22 20:26:02;;;;;;;;;27.75;27.75;;;;;23.90;62.68;101089.94;4884638;29;46747;-61
2022/07/22 20:28:28;;;;;;;;;26.25;25.75;;;;;23.91;62.63;101084.03;4862143;28;45461;-61
2022/07/22 20:30:53;;;;;;;;;28.00;26.75;;;;;23.87;62.96;101085.75;4851949;29;45445;-62
2022/07/22 20:33:19;;;;;;;;;29.75;25.75;;;;;23.87;62.91;101077.34;4882308;29;45479;-62
2022/07/22 20:35:44;;;;;;;;;26.50;24.75;;;;;23.86;62.63;101080.44;4864342;29;46376;-61
2022/07/22 20:38:09;;;;;;;;;32.00;28.50;;;;;23.89;62.79;101080.69;4881670;29;45342;-61
2022/07/22 20:40:35;;;;;;;;;32.00;28.00;;;;;23.84;63.11;101075.13;4864159;29;45337;-62
2022/07/22 20:43:01;;;;;;;;;24.25;24.25;;;;;23.87;63.25;101085.75;4864485;29;45376;-61
2022/07/22 20:45:27;;;;;;;;;28.50;26.25;;;;;23.82;63.01;101091.41;4881085;29;45410;-61
2022/07/22 20:47:52;;;;;;;;;25.60;24.60;;;;;23.67;63.30;101056.78;4864502;29;45325;-60
2022/07/22 20:50:19;;;;;;;;;30.50;24.00;;;;;23.76;63.13;101086.97;4864187;29;45310;-61
2022/07/22 20:52:45;;;;;;;;;30.00;27.20;;;;;23.66;63.06;101085.09;4881232;29;45438;-61
2022/07/22 20:55:11;;;;;;;;;26.80;24.60;;;;;23.65;63.34;101087.03;4864270;29;45638;-61
2022/07/22 20:57:36;;;;;;;;;28.50;27.00;;;;;23.52;63.20;101071.75;4880239;29;45496;-59
2022/07/22 21:00:04;;;;;;;;;32.00;31.25;;;;;23.57;63.50;101086.84;4864389;29;45435;-61
2022/07/22 21:02:29;;;;;;;;;34.60;30.80;;;;;23.51;63.81;101084.09;4881182;29;45439;-61
2022/07/22 21:04:55;;;;;;;;;27.75;24.50;;;;;23.52;63.73;101076.50;4880687;29;46467;-62
2022/07/22 21:07:22;;;;;;;;;28.50;27.25;;;;;23.50;63.73;101082.44;4880052;29;45332;-61
2022/07/22 21:09:48;;;;;;;;;28.40;25.60;;;;;23.53;63.46;101086.59;4880974;29;45405;-61
2022/07/22 21:12:13;;;;;;;;;24.00;24.00;;;;;23.47;63.04;101083.00;4880470;29;45262;-60
2022/07/22 21:14:39;;;;;;;;;30.75;27.75;;;;;23.51;63.33;101080.44;4880470;29;45561;-59
2022/07/22 21:17:04;;;;;;;;;30.25;26.25;;;;;23.53;62.96;101081.81;4880332;29;45444;-60
2022/07/22 21:19:30;;;;;;;;;26.50;22.25;;;;;23.44;62.80;101066.78;4880958;29;45362;-62
2022/07/22 21:21:55;;;;;;;;;28.75;24.50;;;;;23.57;63.01;101086.84;4863575;29;45288;-61
2022/07/22 21:24:21;;;;;;;;;23.00;22.25;;;;;23.52;62.58;101085.75;4880629;29;45992;-61
2022/07/22 21:26:46;;;;;;;;;28.00;23.50;;;;;23.44;62.41;101071.53;4880126;29;45452;-60
2022/07/22 21:29:11;;;;;;;;;24.25;22.50;;;;;23.41;62.62;101068.19;4880977;29;45501;-60
2022/07/22 21:31:37;;;;;;;;;29.50;27.75;;;;;23.53;62.38;101086.59;4880256;29;45442;-61
2022/07/22 21:34:03;;;;;;;;;25.00;22.25;;;;;23.55;62.20;101099.16;4880467;29;46229;-61
2022/07/22 21:36:28;;;;;;;;;25.75;24.25;;;;;23.52;62.30;101096.13;4880417;29;45498;-61
2022/07/22 21:38:54;;;;;;;;;28.75;27.25;;;;;23.52;62.21;101099.75;4880602;29;45412;-61
2022/07/22 21:41:20;;;;;;;;;23.50;23.50;;;;;23.51;62.06;101098.09;4879936;29;45564;-59
2022/07/22 21:43:46;;;;;;;;;28.40;27.00;;;;;23.53;62.01;101103.41;4862995;29;45436;-59
2022/07/22 21:46:11;;;;;;;;;24.50;24.00;;;;;23.53;62.56;101106.22;4855288;29;45374;-60
2022/07/22 21:48:37;;;;;;;;;28.50;23.50;;;;;23.39;62.02;101080.81;4880052;29;45283;-62
2022/07/22 21:51:02;;;;;;;;;23.25;21.50;;;;;23.32;62.48;101095.13;4864907;29;45264;-63
2022/07/22 21:53:28;;;;;;;;;24.00;23.25;;;;;23.15;62.33;101073.94;4856094;29;46483;-63
2022/07/22 21:58:37;;;;;;;;;22.80;20.60;;;;;23.41;62.05;101117.75;4861888;29;45442;-65
2022/07/22 22:01:03;;;;;;;;;27.00;26.25;;;;;23.35;62.12;101116.13;4867994;29;45507;-66
2022/07/22 22:03:28;;;;;;;;;25.00;23.00;;;;;23.35;62.17;101124.53;4876440;29;46798;-62
2022/07/22 22:05:54;;;;;;;;;31.25;27.50;;;;;23.29;62.61;101102.16;4864474;29;45413;-64
2022/07/22 22:08:20;;;;;;;;;27.25;24.00;;;;;23.39;62.47;101134.88;4876397;29;45382;-64
2022/07/22 22:10:45;;;;;;;;;20.50;20.00;;;;;23.41;62.05;101126.16;4877065;29;45556;-62
2022/07/22 22:13:11;;;;;;;;;24.00;21.25;;;;;23.42;61.97;101128.69;4858851;29;45472;-66
2022/07/22 22:15:37;;;;;;;;;29.00;27.75;;;;;23.43;62.41;101132.34;4862895;29;45456;-61